Flight Track Log - Related Links

Times and Time Zones

All times are in EDT time to prevent confusion due to time zone crossing. See the ECJ71 flight status page for this flight to view local times or setup timezone preferences in your user account.

Time Position Orientation Groundspeed Altitude Reporting Facility
EDT Latitude Longitude Course Direction KTS MPH feet Rate Location/Type
Fri 05:07:52 PM 43.2006 -75.3683 137° Southeast 213 245 3,400  Level Boston Center
Fri 05:09:03 PM 43.1350 -75.3311 157° South 263 303 8,500 4,351 Climbing Boston Center
Fri 05:10:03 PM 43.0667 -75.3050 164° South 263 303 12,900 3,500 Climbing Boston Center
Fri 05:11:03 PM 42.9903 -75.2814 167° South 263 303 15,500 1,550 Climbing Boston Center
Fri 05:12:03 PM 42.8953 -75.2461 165° South 309 356 16,000 250 Climbing Boston Center
Fri 05:13:03 PM 42.7844 -75.2522 182° South 371 427 16,000 -50 Level Boston Center
Fri 05:14:03 PM 42.6797 -75.2731 188° South 377 434 15,900 -50 Descending Boston Center
Fri 05:15:03 PM 42.5792 -75.2936 189° South 377 434 15,900 31 Level Boston Center
Fri 05:17:18 PM 42.3478 -75.3328 187° South 386 444 16,000 31 Climbing New Center
Fri 05:18:19 PM 42.2411 -75.3478 186° South 391 450 16,000  Level New Center
Fri 05:19:17 PM 42.1319 -75.3708 189° South 391 450 16,000  Level New Center
Fri 05:20:18 PM 42.0269 -75.3972 191° South 396 456 16,000 -248 Level New Center
Fri 05:21:18 PM 41.9056 -75.4108 185° South 401 461 15,500 -1,008 Descending New Center
Fri 05:22:17 PM 41.8008 -75.4258 186° South 392 451 14,000 -1,488 Descending New Center
Fri 05:23:19 PM 41.7083 -75.4472 190° South 358 412 12,500 -1,525 Descending New Center
Fri 05:24:19 PM 41.6289 -75.4611 187° South 339 390 10,900 -1,563 Descending New Center
Fri 05:25:18 PM 41.5386 -75.4742 186° South 334 384 9,400 -1,450 Descending New Center
Fri 05:26:19 PM 41.4425 -75.4867 186° South 328 377 8,000 -1,388 Descending New Center
Fri 05:27:19 PM 41.3553 -75.4806 177° South 323 372 6,600 -1,017 Descending New Center
Fri 05:28:17 PM 41.2806 -75.4700 174° South 297 342 6,000 -305 Descending New Center
Fri 05:29:17 PM 41.2161 -75.4653 177° South 265 305 6,000  Level New Center
Fri 05:30:19 PM 41.1456 -75.4606 177° South 259 298 6,000  Level New Center
Fri 05:31:19 PM 41.0686 -75.4553 177° South 253 291 6,000  Level New Center
Fri 05:32:17 PM 41.0022 -75.4533 179° South 253 291 6,000 -300 Level New Center
Fri 05:33:19 PM 40.9253 -75.4453 175° South 253 291 5,400 -800 Descending New Center
Fri 05:34:17 PM 40.8525 -75.4403 177° South 253 291 4,400 -966 Descending New Center
Fri 05:35:17 PM 40.7844 -75.4275 172° South 253 291 3,500 -744 Descending New Center
Fri 05:36:18 PM 40.7322 -75.3744 142° Southeast 244 281 2,900 -885 Descending New Center
Fri 05:37:19 PM 40.6925 -75.3775 183° South 160 184 1,700 -857 Descending New Center
Fri 05:38:17 PM 40.6550 -75.3803 183° South 152 175 1,200 4,729 Descending New Center
Fri 05:39:17 PM 40.6133 -75.3775 177° South 152 175 11,000 4,860 Climbing New Center
Fri 05:40:18 PM 40.5719 -75.3747 177° South 152 175 11,000  Level New Center
Fri 05:41:18 PM 40.5303 -75.3719 177° South 152 175 11,000  Level New Center

Login

Don't have an account? Register now (free) for customized features, flight alerts, and more!